Time;durP1;ratioP1;P1;durP2;ratioP2;P2;SDS_P1;SDS_P2;PMS_P1;PMS_P2;Temp;Humidity;BMP_temperature;BMP_pressure;BME280_temperature;BME280_humidity;BME280_pressure;Samples;Min_cycle;Max_cycle;Signal;HPM_P1;HPM_P2
2022/07/14 00:00:50;;;;;;;14.90;2.28;;;;;;;;;;5036030;28;20262;-62
2022/07/14 00:03:16;;;;;;;15.27;2.80;;;;;;;;;;5017976;28;20222;-62
2022/07/14 00:05:41;;;;;;;13.65;2.65;;;;;;;;;;5035311;28;20219;-62
2022/07/14 00:08:06;;;;;;;13.57;2.92;;;;;;;;;;5035452;28;20204;-62
2022/07/14 00:10:32;;;;;;;13.55;2.80;;;;;;;;;;5036095;28;20539;-62
2022/07/14 00:12:57;;;;;;;14.23;2.80;;;;;;;;;;5035045;28;20222;-61
2022/07/14 00:15:22;;;;;;;10.35;2.22;;;;;;;;;;5035366;28;20209;-62
2022/07/14 00:17:48;;;;;;;14.25;2.83;;;;;;;;;;5035003;28;20319;-62
2022/07/14 00:20:13;;;;;;;15.88;2.80;;;;;;;;;;5035321;28;20243;-62
2022/07/14 00:22:40;;;;;;;17.48;2.75;;;;;;;;;;5043800;28;20216;-62
2022/07/14 00:25:06;;;;;;;13.68;3.10;;;;;;;;;;5023040;28;20571;-62
2022/07/14 00:27:31;;;;;;;17.67;2.95;;;;;;;;;;5016070;28;20287;-62
2022/07/14 00:29:56;;;;;;;14.18;2.78;;;;;;;;;;5023817;28;20208;-61
2022/07/14 00:32:21;;;;;;;13.77;2.70;;;;;;;;;;5034382;28;20239;-62
2022/07/14 00:34:47;;;;;;;15.27;2.80;;;;;;;;;;5036003;28;20303;-62
2022/07/14 00:37:12;;;;;;;16.90;3.28;;;;;;;;;;5034831;28;20222;-63
2022/07/14 00:39:56;;;;;;;13.73;3.13;;;;;;;;;;5016786;28;20568;-61
2022/07/14 00:42:32;;;;;;;12.02;2.95;;;;;;;;;;5023404;28;20236;-61
2022/07/14 00:44:58;;;;;;;14.00;2.95;;;;;;;;;;5007553;28;20204;-61
2022/07/14 00:47:23;;;;;;;15.18;2.70;;;;;;;;;;5000447;28;20222;-61
2022/07/14 00:49:50;;;;;;;14.65;3.10;;;;;;;;;;4978786;28;20204;-61
2022/07/14 00:52:16;;;;;;;17.33;3.50;;;;;;;;;;4997325;28;20642;-61
2022/07/14 00:54:41;;;;;;;16.17;2.92;;;;;;;;;;5003156;28;20219;-61
2022/07/14 00:57:06;;;;;;;16.48;3.20;;;;;;;;;;5017627;28;20224;-62
2022/07/14 00:59:32;;;;;;;17.75;3.03;;;;;;;;;;5025308;28;20294;-62
2022/07/14 01:01:57;;;;;;;14.15;3.20;;;;;;;;;;5024047;28;20208;-61
2022/07/14 01:04:22;;;;;;;13.52;2.88;;;;;;;;;;5024341;28;20249;-61
2022/07/14 01:06:48;;;;;;;14.55;2.80;;;;;;;;;;5025044;28;20215;-61
2022/07/14 01:09:13;;;;;;;12.98;3.17;;;;;;;;;;5020305;28;20216;-62
2022/07/14 01:11:38;;;;;;;13.55;2.33;;;;;;;;;;5016498;28;20204;-61
2022/07/14 01:14:04;;;;;;;14.57;2.80;;;;;;;;;;5004693;28;20217;-62
2022/07/14 01:16:29;;;;;;;14.10;3.05;;;;;;;;;;5002105;28;20322;-62
2022/07/14 01:18:54;;;;;;;12.52;2.70;;;;;;;;;;5024949;28;20710;-62
2022/07/14 01:21:20;;;;;;;9.30;2.63;;;;;;;;;;5023530;28;20218;-62
2022/07/14 01:23:45;;;;;;;16.77;2.97;;;;;;;;;;5005645;28;20220;-61
2022/07/14 01:26:10;;;;;;;12.02;2.70;;;;;;;;;;5004559;28;20204;-61
2022/07/14 01:28:36;;;;;;;15.02;3.03;;;;;;;;;;5004967;28;20635;-61
2022/07/14 01:31:01;;;;;;;13.10;2.97;;;;;;;;;;5003940;28;20216;-61
2022/07/14 01:33:26;;;;;;;14.50;2.67;;;;;;;;;;4998202;28;20228;-61
2022/07/14 01:35:52;;;;;;;13.23;2.88;;;;;;;;;;4996731;28;20217;-61
2022/07/14 01:38:17;;;;;;;12.93;2.90;;;;;;;;;;4997684;28;20240;-61
2022/07/14 01:40:44;;;;;;;13.65;2.60;;;;;;;;;;5005290;28;20208;-61
2022/07/14 01:43:10;;;;;;;13.27;3.17;;;;;;;;;;5003780;28;20212;-61
2022/07/14 01:45:36;;;;;;;15.48;2.83;;;;;;;;;;5005265;28;20204;-61
2022/07/14 01:48:01;;;;;;;13.13;2.60;;;;;;;;;;5014045;28;20226;-62
2022/07/14 01:50:26;;;;;;;13.10;2.42;;;;;;;;;;5023706;28;20214;-61
2022/07/14 01:52:51;;;;;;;11.98;2.50;;;;;;;;;;5031412;28;20223;-61
2022/07/14 01:55:17;;;;;;;12.60;2.72;;;;;;;;;;5019212;28;20286;-62
2022/07/14 01:57:42;;;;;;;11.82;2.70;;;;;;;;;;5015062;28;20224;-61
2022/07/14 02:00:08;;;;;;;13.50;3.08;;;;;;;;;;5015378;28;20532;-62
2022/07/14 02:02:33;;;;;;;10.80;2.60;;;;;;;;;;5021713;28;20211;-61
2022/07/14 02:04:58;;;;;;;17.35;3.13;;;;;;;;;;5022966;28;20232;-61
2022/07/14 02:07:24;;;;;;;14.10;2.78;;;;;;;;;;5023796;28;20541;-61
2022/07/14 02:12:33;;;;;;;12.82;2.70;;;;;;;;;;5022840;28;20223;-61
2022/07/14 02:14:58;;;;;;;13.10;2.65;;;;;;;;;;5015987;28;20208;-61
2022/07/14 02:17:23;;;;;;;13.50;2.63;;;;;;;;;;4998951;28;20722;-61
2022/07/14 02:19:48;;;;;;;13.18;2.83;;;;;;;;;;4995608;28;20209;-61
2022/07/14 02:22:14;;;;;;;13.00;2.65;;;;;;;;;;5007969;28;20270;-61
2022/07/14 02:24:40;;;;;;;12.63;2.45;;;;;;;;;;4999677;28;20219;-61
2022/07/14 02:27:05;;;;;;;12.98;2.78;;;;;;;;;;5022715;28;20753;-62
2022/07/14 02:29:31;;;;;;;13.48;3.20;;;;;;;;;;5019485;28;20307;-61
2022/07/14 02:31:56;;;;;;;12.07;2.78;;;;;;;;;;5003650;28;20208;-61
2022/07/14 02:34:21;;;;;;;9.90;2.63;;;;;;;;;;5003335;28;20217;-61
2022/07/14 02:36:47;;;;;;;15.27;2.35;;;;;;;;;;5004096;28;20212;-62
2022/07/14 02:39:13;;;;;;;14.38;2.60;;;;;;;;;;5002503;28;20476;-62
2022/07/14 02:41:38;;;;;;;15.93;3.08;;;;;;;;;;5015821;28;20200;-62
2022/07/14 02:44:03;;;;;;;12.88;2.78;;;;;;;;;;5014963;28;20207;-62
2022/07/14 02:46:29;;;;;;;14.70;2.55;;;;;;;;;;5016078;28;20316;-62
2022/07/14 02:48:54;;;;;;;14.20;2.50;;;;;;;;;;5005825;28;20213;-62
2022/07/14 02:51:19;;;;;;;10.40;2.28;;;;;;;;;;5003320;28;20679;-62
2022/07/14 02:53:45;;;;;;;17.73;2.97;;;;;;;;;;5003038;28;20216;-62
2022/07/14 02:56:10;;;;;;;11.68;2.95;;;;;;;;;;5002859;28;20287;-62
2022/07/14 02:58:36;;;;;;;10.48;2.40;;;;;;;;;;5003170;28;20726;-62
2022/07/14 03:01:05;;;;;;;13.18;2.65;;;;;;;;;;5002487;28;20573;-62
2022/07/14 03:03:31;;;;;;;11.23;2.78;;;;;;;;;;4994691;28;20220;-62
2022/07/14 03:05:57;;;;;;;11.90;2.60;;;;;;;;;;4997070;28;20764;-62
2022/07/14 03:08:22;;;;;;;13.70;2.60;;;;;;;;;;5014008;28;20875;-62
2022/07/14 03:10:49;;;;;;;12.82;2.80;;;;;;;;;;5021511;28;20678;-62
2022/07/14 03:13:14;;;;;;;11.48;3.08;;;;;;;;;;5022030;28;20254;-62
2022/07/14 03:15:40;;;;;;;11.63;2.60;;;;;;;;;;5008503;28;20244;-61
2022/07/14 03:18:05;;;;;;;13.50;2.90;;;;;;;;;;5002920;28;20958;-62
2022/07/14 03:20:30;;;;;;;17.85;2.88;;;;;;;;;;5004777;28;20223;-61
2022/07/14 03:22:56;;;;;;;9.43;2.20;;;;;;;;;;5009767;28;20219;-61
2022/07/14 03:25:22;;;;;;;10.70;2.42;;;;;;;;;;4998721;28;20279;-61
2022/07/14 03:27:47;;;;;;;12.35;2.75;;;;;;;;;;5013540;28;20203;-62
2022/07/14 03:30:12;;;;;;;14.32;2.80;;;;;;;;;;5003460;28;20219;-62
2022/07/14 03:32:39;;;;;;;12.18;2.67;;;;;;;;;;5018576;28;20635;-62
2022/07/14 03:35:06;;;;;;;11.00;2.10;;;;;;;;;;5021478;28;20691;-62
2022/07/14 03:37:31;;;;;;;7.55;1.90;;;;;;;;;;5022290;28;20203;-61
2022/07/14 03:39:56;;;;;;;13.68;2.60;;;;;;;;;;5022358;28;20269;-61
2022/07/14 03:42:23;;;;;;;11.18;2.15;;;;;;;;;;5021126;28;20208;-61
2022/07/14 03:44:48;;;;;;;10.35;2.30;;;;;;;;;;5022156;28;20227;-62
2022/07/14 03:47:14;;;;;;;10.05;2.55;;;;;;;;;;5016314;28;20208;-62
2022/07/14 03:49:39;;;;;;;11.18;2.30;;;;;;;;;;4994775;28;20223;-61
2022/07/14 03:52:04;;;;;;;11.18;2.35;;;;;;;;;;4994710;28;20278;-62
2022/07/14 03:54:30;;;;;;;12.35;2.53;;;;;;;;;;4996588;28;20212;-61
2022/07/14 03:56:55;;;;;;;11.20;2.28;;;;;;;;;;5002378;28;20216;-62
2022/07/14 03:59:20;;;;;;;10.43;2.65;;;;;;;;;;5001870;28;20698;-62
2022/07/14 04:01:46;;;;;;;8.82;2.10;;;;;;;;;;5003252;28;20259;-62
2022/07/14 04:04:11;;;;;;;10.48;2.22;;;;;;;;;;5001070;28;20208;-61
2022/07/14 04:06:36;;;;;;;15.40;2.88;;;;;;;;;;5002706;28;20247;-61
2022/07/14 04:09:02;;;;;;;12.50;2.25;;;;;;;;;;5002185;28;20683;-61
2022/07/14 04:11:27;;;;;;;11.40;2.70;;;;;;;;;;4995207;28;20446;-61
2022/07/14 04:13:52;;;;;;;10.98;2.50;;;;;;;;;;4995067;28;20311;-62
2022/07/14 04:16:18;;;;;;;15.68;2.35;;;;;;;;;;4994047;28;20307;-62
2022/07/14 04:18:43;;;;;;;13.27;2.92;;;;;;;;;;5001360;28;20224;-61
2022/07/14 04:21:09;;;;;;;11.18;2.67;;;;;;;;;;5002003;28;20208;-61
2022/07/14 04:23:35;;;;;;;11.82;2.25;;;;;;;;;;5006188;28;20208;-63
2022/07/14 04:26:01;;;;;;;17.20;2.58;;;;;;;;;;5010563;28;20208;-64
2022/07/14 04:28:27;;;;;;;13.27;2.50;;;;;;;;;;5038040;28;20708;-63
2022/07/14 04:30:53;;;;;;;12.52;2.42;;;;;;;;;;5048232;28;20298;-62
2022/07/14 04:33:19;;;;;;;13.07;2.83;;;;;;;;;;5050106;28;20427;-63
2022/07/14 04:35:44;;;;;;;13.05;2.95;;;;;;;;;;5051569;28;20211;-64
2022/07/14 04:38:09;;;;;;;12.13;2.47;;;;;;;;;;5050470;28;20234;-63
2022/07/14 04:40:35;;;;;;;9.00;2.00;;;;;;;;;;5051772;28;20268;-63
2022/07/14 04:43:01;;;;;;;10.27;2.50;;;;;;;;;;5054432;28;20249;-63
2022/07/14 04:45:26;;;;;;;13.30;2.25;;;;;;;;;;5054495;28;20207;-64
2022/07/14 04:47:51;;;;;;;14.13;3.08;;;;;;;;;;5039046;28;20205;-63
2022/07/14 04:53:01;;;;;;;14.35;2.45;;;;;;;;;;5034395;28;20206;-64
2022/07/14 04:55:26;;;;;;;9.90;2.05;;;;;;;;;;5026318;28;20300;-63
2022/07/14 04:57:51;;;;;;;15.65;2.60;;;;;;;;;;5023912;28;20339;-63
2022/07/14 05:00:16;;;;;;;13.57;2.35;;;;;;;;;;5024225;28;20624;-63
2022/07/14 05:02:42;;;;;;;14.77;2.67;;;;;;;;;;5024886;28;20208;-63
2022/07/14 05:05:07;;;;;;;12.80;2.35;;;;;;;;;;5024138;28;20828;-63
2022/07/14 05:07:33;;;;;;;10.18;2.40;;;;;;;;;;5035422;28;20218;-62
2022/07/14 05:09:58;;;;;;;12.25;2.72;;;;;;;;;;5026564;28;20216;-61
2022/07/14 05:12:23;;;;;;;14.32;2.60;;;;;;;;;;5024925;28;20656;-62
2022/07/14 05:14:49;;;;;;;12.88;2.80;;;;;;;;;;5027074;28;20200;-62
2022/07/14 05:17:14;;;;;;;12.52;2.17;;;;;;;;;;5040341;28;20211;-62
2022/07/14 05:19:39;;;;;;;10.15;2.00;;;;;;;;;;5029007;28;20710;-63
2022/07/14 05:22:05;;;;;;;11.35;2.30;;;;;;;;;;5024003;28;20548;-62
2022/07/14 05:24:30;;;;;;;12.63;2.13;;;;;;;;;;5029114;28;20672;-63
2022/07/14 05:26:58;;;;;;;15.00;2.47;;;;;;;;;;5025153;28;20236;-64
2022/07/14 05:29:23;;;;;;;11.43;2.30;;;;;;;;;;5029299;28;20776;-64
2022/07/14 05:31:48;;;;;;;11.32;2.22;;;;;;;;;;5025194;28;20228;-65
2022/07/14 05:34:13;;;;;;;10.70;2.47;;;;;;;;;;5033227;28;20216;-63
2022/07/14 05:36:39;;;;;;;12.52;2.13;;;;;;;;;;5032061;28;20736;-64
2022/07/14 05:39:04;;;;;;;12.18;2.25;;;;;;;;;;5033807;28;20247;-63
2022/07/14 05:41:29;;;;;;;8.43;1.80;;;;;;;;;;5031387;28;20207;-64
2022/07/14 05:43:55;;;;;;;12.77;2.17;;;;;;;;;;5023689;28;20247;-66
2022/07/14 05:46:20;;;;;;;11.77;2.40;;;;;;;;;;5022656;28;20227;-66
2022/07/14 05:48:45;;;;;;;12.38;2.58;;;;;;;;;;5033283;28;20671;-65
2022/07/14 05:51:11;;;;;;;12.10;2.88;;;;;;;;;;4999433;28;20216;-65
2022/07/14 05:53:37;;;;;;;11.57;2.60;;;;;;;;;;5033302;28;20215;-66
2022/07/14 05:56:04;;;;;;;11.35;2.20;;;;;;;;;;5032908;28;20204;-66
2022/07/14 05:58:29;;;;;;;10.70;1.88;;;;;;;;;;5033882;28;20258;-66
2022/07/14 06:00:55;;;;;;;10.35;2.25;;;;;;;;;;5034007;28;20243;-66
2022/07/14 06:03:20;;;;;;;14.80;2.60;;;;;;;;;;5032607;28;20223;-66
2022/07/14 06:05:45;;;;;;;11.05;2.17;;;;;;;;;;5033543;28;20219;-66
2022/07/14 06:08:11;;;;;;;13.90;2.45;;;;;;;;;;5033772;28;20208;-66
2022/07/14 06:10:36;;;;;;;14.88;2.20;;;;;;;;;;5033061;28;20204;-66
2022/07/14 06:13:03;;;;;;;13.13;2.55;;;;;;;;;;5033512;28;20208;-66
2022/07/14 06:15:29;;;;;;;13.23;2.15;;;;;;;;;;5033848;28;20568;-66
2022/07/14 06:17:54;;;;;;;13.43;2.03;;;;;;;;;;5032879;28;20699;-65
2022/07/14 06:20:19;;;;;;;11.13;1.90;;;;;;;;;;5032973;28;20218;-66
2022/07/14 06:22:44;;;;;;;11.48;2.15;;;;;;;;;;5033615;28;20258;-66
2022/07/14 06:25:10;;;;;;;12.63;2.22;;;;;;;;;;5032341;28;20289;-66
2022/07/14 06:27:35;;;;;;;12.52;2.90;;;;;;;;;;5033610;28;20299;-66
2022/07/14 06:30:04;;;;;;;10.73;2.03;;;;;;;;;;5032863;28;20314;-66
2022/07/14 06:32:29;;;;;;;10.93;1.95;;;;;;;;;;5032568;28;20215;-65
2022/07/14 06:34:54;;;;;;;9.90;2.10;;;;;;;;;;5015545;28;20204;-66
2022/07/14 06:37:20;;;;;;;12.30;2.30;;;;;;;;;;5032991;28;20212;-67
2022/07/14 06:39:45;;;;;;;13.13;2.05;;;;;;;;;;5032597;28;20235;-65
2022/07/14 06:42:10;;;;;;;9.90;1.90;;;;;;;;;;5030708;28;20199;-66
2022/07/14 06:44:36;;;;;;;12.52;2.13;;;;;;;;;;5032614;28;20215;-66
2022/07/14 06:47:01;;;;;;;12.55;2.47;;;;;;;;;;5030455;28;20215;-66
2022/07/14 06:49:27;;;;;;;12.32;2.13;;;;;;;;;;5033023;28;20211;-66
2022/07/14 06:51:52;;;;;;;16.52;2.15;;;;;;;;;;5032388;28;20254;-67
2022/07/14 06:54:17;;;;;;;11.48;2.35;;;;;;;;;;5032548;28;20611;-66
2022/07/14 06:56:43;;;;;;;14.35;2.63;;;;;;;;;;5033097;28;20516;-65
2022/07/14 06:59:08;;;;;;;13.93;2.33;;;;;;;;;;5031630;28;20254;-66
2022/07/14 07:01:34;;;;;;;12.45;2.47;;;;;;;;;;5032979;28;20321;-66
2022/07/14 07:03:59;;;;;;;11.55;2.40;;;;;;;;;;5032178;28;20362;-66
2022/07/14 07:09:08;;;;;;;11.93;2.80;;;;;;;;;;5032256;28;20207;-66
2022/07/14 07:11:33;;;;;;;13.93;3.08;;;;;;;;;;5032728;28;20616;-66
2022/07/14 07:13:59;;;;;;;9.65;1.90;;;;;;;;;;5031765;28;20258;-66
2022/07/14 07:16:25;;;;;;;13.80;2.30;;;;;;;;;;5032154;28;20207;-66
2022/07/14 07:18:50;;;;;;;10.70;1.70;;;;;;;;;;5032277;28;20223;-66
2022/07/14 07:21:18;;;;;;;11.68;2.17;;;;;;;;;;5031262;28;20322;-66
2022/07/14 07:23:46;;;;;;;10.23;1.85;;;;;;;;;;5032673;28;20218;-66
2022/07/14 07:26:12;;;;;;;14.35;2.10;;;;;;;;;;5032221;28;20570;-66
2022/07/14 07:28:37;;;;;;;12.35;2.00;;;;;;;;;;5031682;28;20282;-66
2022/07/14 07:31:03;;;;;;;6.90;1.58;;;;;;;;;;5032037;28;20299;-66
2022/07/14 07:33:28;;;;;;;11.20;2.00;;;;;;;;;;5032803;28;20215;-66
2022/07/14 07:35:53;;;;;;;9.98;1.73;;;;;;;;;;5031756;28;20242;-66
2022/07/14 07:38:19;;;;;;;7.47;1.52;;;;;;;;;;5031847;28;20577;-66
2022/07/14 07:40:47;;;;;;;8.82;1.48;;;;;;;;;;5032324;28;20207;-66
2022/07/14 07:43:12;;;;;;;11.05;1.63;;;;;;;;;;5031475;28;20208;-66
2022/07/14 07:45:38;;;;;;;10.48;1.98;;;;;;;;;;5032363;28;20214;-66
2022/07/14 07:48:04;;;;;;;12.75;1.85;;;;;;;;;;5031238;28;20260;-66
2022/07/14 07:50:30;;;;;;;9.65;1.55;;;;;;;;;;5032361;28;20337;-66
2022/07/14 07:52:55;;;;;;;10.02;1.63;;;;;;;;;;5014479;28;20291;-66
2022/07/14 07:55:20;;;;;;;7.93;1.92;;;;;;;;;;5013505;28;20297;-65
2022/07/14 07:57:45;;;;;;;10.40;1.73;;;;;;;;;;5031993;28;20270;-66
2022/07/14 08:00:11;;;;;;;7.78;1.50;;;;;;;;;;5031896;28;20207;-66
2022/07/14 08:02:43;;;;;;;8.55;1.85;;;;;;;;;;5031577;28;20219;-65
2022/07/14 08:05:08;;;;;;;9.85;2.28;;;;;;;;;;5031448;28;20690;-66
2022/07/14 08:07:34;;;;;;;7.15;1.40;;;;;;;;;;5032272;28;20212;-66
2022/07/14 08:09:59;;;;;;;6.15;1.30;;;;;;;;;;5031274;28;20254;-65
2022/07/14 08:12:25;;;;;;;7.57;1.50;;;;;;;;;;5031721;28;20212;-66
2022/07/14 08:14:51;;;;;;;8.32;1.58;;;;;;;;;;5025340;28;20204;-67
2022/07/14 08:17:18;;;;;;;9.25;1.45;;;;;;;;;;5021411;28;20695;-66
2022/07/14 08:19:44;;;;;;;9.85;1.85;;;;;;;;;;5016155;28;20240;-66
2022/07/14 08:22:09;;;;;;;8.50;1.42;;;;;;;;;;5015781;28;20208;-65
2022/07/14 08:24:34;;;;;;;8.80;1.40;;;;;;;;;;5015322;28;20231;-65
2022/07/14 08:27:00;;;;;;;5.28;1.63;;;;;;;;;;5016104;28;20212;-65
2022/07/14 08:29:25;;;;;;;6.68;1.45;;;;;;;;;;5001477;28;20295;-65
2022/07/14 08:31:50;;;;;;;8.30;1.63;;;;;;;;;;5035091;28;20207;-66
2022/07/14 08:34:16;;;;;;;7.55;1.30;;;;;;;;;;5035179;28;20215;-66
2022/07/14 08:36:41;;;;;;;5.80;1.38;;;;;;;;;;5035482;28;20665;-66
2022/07/14 08:39:07;;;;;;;5.82;1.25;;;;;;;;;;5034105;28;20663;-66
2022/07/14 08:41:33;;;;;;;6.45;1.20;;;;;;;;;;5035361;28;20666;-66
2022/07/14 08:43:58;;;;;;;6.53;1.33;;;;;;;;;;5017713;28;20642;-66
2022/07/14 08:46:23;;;;;;;9.38;1.30;;;;;;;;;;5034379;28;20242;-65
2022/07/14 08:48:49;;;;;;;6.60;1.40;;;;;;;;;;5035387;28;20302;-66
2022/07/14 08:51:14;;;;;;;4.80;1.45;;;;;;;;;;5016283;28;20215;-66
2022/07/14 08:53:40;;;;;;;5.47;1.10;;;;;;;;;;5035284;28;20269;-66
2022/07/14 08:56:05;;;;;;;4.32;1.05;;;;;;;;;;5017004;28;20204;-66
2022/07/14 08:58:30;;;;;;;5.82;1.17;;;;;;;;;;5034357;28;20232;-65
2022/07/14 09:00:56;;;;;;;7.30;1.20;;;;;;;;;;5035376;28;20204;-65
2022/07/14 09:03:21;;;;;;;4.57;1.08;;;;;;;;;;5035027;28;20219;-65
2022/07/14 09:05:47;;;;;;;6.38;1.20;;;;;;;;;;5034128;28;20231;-65
2022/07/14 09:08:12;;;;;;;9.60;1.60;;;;;;;;;;5034632;28;20216;-65
2022/07/14 09:10:38;;;;;;;9.25;1.25;;;;;;;;;;5017316;28;20210;-65
2022/07/14 09:13:10;;;;;;;6.78;1.30;;;;;;;;;;5033740;28;20295;-66
2022/07/14 09:15:44;;;;;;;6.20;1.30;;;;;;;;;;5034763;28;20215;-66
2022/07/14 09:18:12;;;;;;;6.60;1.17;;;;;;;;;;5034675;28;20227;-67
2022/07/14 09:20:37;;;;;;;5.13;1.20;;;;;;;;;;5016383;28;20262;-65
2022/07/14 09:23:03;;;;;;;7.28;1.20;;;;;;;;;;5034645;28;20231;-66
2022/07/14 09:25:29;;;;;;;6.82;1.27;;;;;;;;;;5034675;28;20208;-65
2022/07/14 09:27:55;;;;;;;6.18;1.42;;;;;;;;;;5014986;28;20574;-65
2022/07/14 09:30:20;;;;;;;5.93;1.02;;;;;;;;;;5033965;28;20225;-65
2022/07/14 09:32:46;;;;;;;5.40;1.35;;;;;;;;;;5034932;28;20212;-66
2022/07/14 09:35:12;;;;;;;7.40;1.25;;;;;;;;;;5033209;28;20199;-66
2022/07/14 09:37:38;;;;;;;6.47;1.15;;;;;;;;;;5016847;28;20208;-65
2022/07/14 09:40:03;;;;;;;5.22;1.30;;;;;;;;;;5034037;28;20576;-65
2022/07/14 09:42:45;;;;;;;7.38;1.23;;;;;;;;;;5033512;28;20637;-65
2022/07/14 09:45:11;;;;;;;5.65;1.23;;;;;;;;;;5033848;28;20212;-65
2022/07/14 09:47:53;;;;;;;5.93;1.23;;;;;;;;;;5033801;28;20269;-66
2022/07/14 09:50:38;;;;;;;4.47;0.98;;;;;;;;;;5015142;28;20207;-66
2022/07/14 09:53:16;;;;;;;5.72;1.17;;;;;;;;;;5033256;28;20208;-65
2022/07/14 09:55:43;;;;;;;3.88;1.10;;;;;;;;;;5033533;28;20295;-64
2022/07/14 09:58:09;;;;;;;5.72;1.00;;;;;;;;;;5033543;28;20285;-65
2022/07/14 10:00:34;;;;;;;6.18;1.67;;;;;;;;;;5033834;28;20215;-65
2022/07/14 10:03:00;;;;;;;6.15;1.13;;;;;;;;;;5008753;28;20258;-64
2022/07/14 10:05:25;;;;;;;5.25;1.13;;;;;;;;;;4996141;28;20228;-65
2022/07/14 10:07:51;;;;;;;3.92;1.00;;;;;;;;;;5004724;28;20562;-64
2022/07/14 10:10:16;;;;;;;5.38;1.13;;;;;;;;;;5012823;28;20221;-64
2022/07/14 10:12:42;;;;;;;6.07;1.30;;;;;;;;;;5014139;28;20205;-64
2022/07/14 10:15:08;;;;;;;4.43;1.13;;;;;;;;;;5013729;28;20217;-66
2022/07/14 10:17:35;;;;;;;3.40;1.10;;;;;;;;;;5012771;28;20211;-65
2022/07/14 10:20:00;;;;;;;6.05;1.45;;;;;;;;;;5013802;28;20287;-65
2022/07/14 10:22:25;;;;;;;4.47;1.10;;;;;;;;;;5025029;28;20298;-65
2022/07/14 10:24:51;;;;;;;4.07;1.10;;;;;;;;;;5032906;28;20290;-64
2022/07/14 10:27:18;;;;;;;4.18;0.90;;;;;;;;;;5031817;28;20207;-64
2022/07/14 10:29:46;;;;;;;3.90;1.23;;;;;;;;;;5026724;28;20217;-65
2022/07/14 10:32:13;;;;;;;4.68;0.95;;;;;;;;;;5012135;28;20213;-65
2022/07/14 10:34:42;;;;;;;4.97;1.23;;;;;;;;;;5012363;28;20215;-65
2022/07/14 10:37:09;;;;;;;5.43;1.25;;;;;;;;;;5029420;28;20219;-64
2022/07/14 10:39:38;;;;;;;4.35;1.02;;;;;;;;;;5031729;28;20220;-65
2022/07/14 10:42:03;;;;;;;4.75;0.98;;;;;;;;;;5033032;28;20207;-65
2022/07/14 10:44:29;;;;;;;6.57;1.42;;;;;;;;;;5032266;28;20222;-65
2022/07/14 10:47:08;;;;;;;4.68;0.80;;;;;;;;;;5030223;28;20208;-64
2022/07/14 10:49:53;;;;;;;4.03;1.40;;;;;;;;;;5032682;28;20215;-64
2022/07/14 10:52:25;;;;;;;8.23;1.33;;;;;;;;;;5032069;28;20223;-64
2022/07/14 10:55:07;;;;;;;5.50;1.35;;;;;;;;;;5033334;28;20283;-65
2022/07/14 10:57:33;;;;;;;5.18;1.05;;;;;;;;;;5031276;28;20679;-64
2022/07/14 10:59:59;;;;;;;5.18;1.08;;;;;;;;;;5032267;28;20218;-64
2022/07/14 11:02:24;;;;;;;4.50;1.10;;;;;;;;;;5032648;28;20220;-65
2022/07/14 11:05:00;;;;;;;4.40;1.00;;;;;;;;;;5035226;28;20219;-64
2022/07/14 11:07:32;;;;;;;6.43;1.48;;;;;;;;;;5052183;28;20653;-64
2022/07/14 11:09:58;;;;;;;4.93;1.05;;;;;;;;;;5052264;28;20755;-64
2022/07/14 11:12:24;;;;;;;4.88;1.10;;;;;;;;;;5041317;28;20215;-65
2022/07/14 11:14:49;;;;;;;4.55;1.00;;;;;;;;;;5041956;28;20211;-64
2022/07/14 11:17:37;;;;;;;7.30;1.20;;;;;;;;;;5027175;28;20280;-65
2022/07/14 11:20:04;;;;;;;3.13;0.93;;;;;;;;;;5048414;28;21094;-63
2022/07/14 11:22:29;;;;;;;3.45;1.10;;;;;;;;;;5041876;28;20598;-64
2022/07/14 11:24:55;;;;;;;4.10;1.23;;;;;;;;;;5049397;28;20215;-64
2022/07/14 11:27:22;;;;;;;4.30;1.40;;;;;;;;;;5051325;28;20222;-64
2022/07/14 11:29:47;;;;;;;2.92;0.85;;;;;;;;;;5030954;28;20208;-63
2022/07/14 11:32:29;;;;;;;4.93;0.90;;;;;;;;;;5043081;28;20230;-64
2022/07/14 11:37:59;;;;;;;3.22;0.90;;;;;;;;;;5032276;28;20210;-64
2022/07/14 11:40:40;;;;;;;3.92;1.00;;;;;;;;;;5030968;28;20294;-64
2022/07/14 11:43:36;;;;;;;2.70;0.73;;;;;;;;;;5031538;28;20220;-64
2022/07/14 11:46:03;;;;;;;3.72;0.95;;;;;;;;;;5034911;28;20684;-63
2022/07/14 11:48:29;;;;;;;4.53;1.05;;;;;;;;;;5031628;28;20207;-63
2022/07/14 11:51:01;;;;;;;2.47;0.85;;;;;;;;;;5032067;28;20212;-64
2022/07/14 11:53:27;;;;;;;6.38;1.00;;;;;;;;;;5036179;28;20215;-64
2022/07/14 11:55:53;;;;;;;2.15;0.82;;;;;;;;;;5035593;28;20290;-63
2022/07/14 11:58:20;;;;;;;4.15;0.90;;;;;;;;;;5051073;28;20306;-64
2022/07/14 12:00:54;;;;;;;2.40;1.00;;;;;;;;;;5051377;28;20220;-64
2022/07/14 12:03:19;;;;;;;10.52;1.92;;;;;;;;;;5040076;28;20222;-64
2022/07/14 12:05:45;;;;;;;3.95;0.90;;;;;;;;;;5043829;28;20230;-63
2022/07/14 12:08:12;;;;;;;5.13;1.52;;;;;;;;;;5034913;28;20231;-64
2022/07/14 12:10:40;;;;;;;3.58;0.95;;;;;;;;;;5036185;28;20584;-64
2022/07/14 12:13:05;;;;;;;4.25;0.85;;;;;;;;;;5035756;28;20211;-64
2022/07/14 12:15:30;;;;;;;4.80;1.00;;;;;;;;;;5035063;28;20216;-64
2022/07/14 12:17:56;;;;;;;3.92;0.90;;;;;;;;;;5036144;28;20215;-63
2022/07/14 12:20:21;;;;;;;2.45;0.70;;;;;;;;;;5035111;28;20219;-64
2022/07/14 12:22:51;;;;;;;1.50;0.75;;;;;;;;;;5035187;28;20214;-64
2022/07/14 12:25:28;;;;;;;5.03;0.90;;;;;;;;;;5035333;28;20216;-65
2022/07/14 12:27:54;;;;;;;4.05;1.25;;;;;;;;;;5035881;28;20345;-63
2022/07/14 12:30:20;;;;;;;3.97;0.80;;;;;;;;;;5016460;28;20222;-63
2022/07/14 12:32:50;;;;;;;4.53;0.82;;;;;;;;;;5033659;28;20220;-64
2022/07/14 12:35:15;;;;;;;2.58;0.80;;;;;;;;;;5031132;28;20282;-64
2022/07/14 12:37:40;;;;;;;4.13;1.00;;;;;;;;;;5034977;28;20243;-64
2022/07/14 12:40:06;;;;;;;4.45;0.80;;;;;;;;;;5033100;28;20310;-64
2022/07/14 12:42:31;;;;;;;3.45;0.80;;;;;;;;;;5031759;28;20218;-64
2022/07/14 12:44:58;;;;;;;2.40;0.88;;;;;;;;;;5027111;28;20690;-63
2022/07/14 12:47:23;;;;;;;4.47;1.00;;;;;;;;;;5013887;28;20208;-64
2022/07/14 12:49:49;;;;;;;3.10;0.90;;;;;;;;;;5035198;28;20204;-64
2022/07/14 12:52:15;;;;;;;1.92;0.57;;;;;;;;;;5034343;28;20348;-64
2022/07/14 12:54:40;;;;;;;4.03;0.63;;;;;;;;;;5035290;28;20693;-63
2022/07/14 12:57:06;;;;;;;4.25;1.00;;;;;;;;;;5033955;28;20211;-63
2022/07/14 12:59:35;;;;;;;3.20;0.80;;;;;;;;;;5034282;28;20298;-64
2022/07/14 13:02:03;;;;;;;6.88;1.25;;;;;;;;;;5034304;28;20212;-65
2022/07/14 13:04:29;;;;;;;4.90;0.95;;;;;;;;;;5015179;28;20211;-64
2022/07/14 13:06:56;;;;;;;3.25;0.80;;;;;;;;;;5019632;28;20279;-63
2022/07/14 13:09:21;;;;;;;6.30;0.95;;;;;;;;;;5008838;28;20213;-64
2022/07/14 13:11:47;;;;;;;3.08;0.95;;;;;;;;;;5013491;28;20584;-64
2022/07/14 13:14:12;;;;;;;4.65;0.80;;;;;;;;;;5004491;28;20211;-63
2022/07/14 13:16:42;;;;;;;3.00;0.80;;;;;;;;;;5023845;28;20212;-63
2022/07/14 13:19:09;;;;;;;3.55;0.70;;;;;;;;;;5008346;28;20293;-65
2022/07/14 13:21:44;;;;;;;2.83;0.80;;;;;;;;;;5027647;28;20204;-64
2022/07/14 13:24:11;;;;;;;4.30;1.00;;;;;;;;;;5017311;28;20242;-64
2022/07/14 13:26:37;;;;;;;2.42;0.68;;;;;;;;;;5008505;28;20204;-63
2022/07/14 13:29:02;;;;;;;4.35;0.77;;;;;;;;;;5014565;28;20551;-64
2022/07/14 13:31:28;;;;;;;3.80;0.90;;;;;;;;;;5002082;28;20872;-64
2022/07/14 13:33:58;;;;;;;5.32;0.93;;;;;;;;;;5000333;28;20774;-63
2022/07/14 13:36:23;;;;;;;3.35;0.98;;;;;;;;;;5005291;28;20212;-63
2022/07/14 13:38:49;;;;;;;3.42;0.90;;;;;;;;;;5008922;28;20785;-63
2022/07/14 13:41:15;;;;;;;4.30;0.90;;;;;;;;;;5010918;28;20227;-62
2022/07/14 13:43:41;;;;;;;3.83;0.90;;;;;;;;;;5008820;28;20215;-62
2022/07/14 13:46:06;;;;;;;4.68;0.95;;;;;;;;;;5008324;28;20231;-64
2022/07/14 13:48:32;;;;;;;3.92;1.00;;;;;;;;;;4999502;28;20570;-64
2022/07/14 13:53:41;;;;;;;3.58;1.02;;;;;;;;;;5029134;28;21160;-63
2022/07/14 13:56:06;;;;;;;4.53;1.00;;;;;;;;;;5020921;28;20224;-63
2022/07/14 13:58:32;;;;;;;3.22;1.17;;;;;;;;;;4999798;28;20235;-63
2022/07/14 14:00:58;;;;;;;4.57;1.00;;;;;;;;;;5015541;28;20210;-63
2022/07/14 14:03:23;;;;;;;3.60;1.10;;;;;;;;;;5027652;28;20748;-63
2022/07/14 14:05:51;;;;;;;3.95;1.00;;;;;;;;;;5028141;28;20242;-63
2022/07/14 14:08:17;;;;;;;5.70;0.93;;;;;;;;;;5046122;28;20211;-64
2022/07/14 14:10:42;;;;;;;3.78;0.80;;;;;;;;;;5047434;28;20217;-63
2022/07/14 14:13:07;;;;;;;4.03;0.90;;;;;;;;;;5046669;28;20331;-64
2022/07/14 14:15:33;;;;;;;3.50;0.70;;;;;;;;;;5039840;28;20218;-63
2022/07/14 14:17:58;;;;;;;4.53;0.85;;;;;;;;;;5038880;28;20206;-63
2022/07/14 14:20:25;;;;;;;3.42;0.77;;;;;;;;;;5038997;28;20232;-63
2022/07/14 14:22:51;;;;;;;6.45;0.80;;;;;;;;;;5045067;28;20219;-63
2022/07/14 14:25:16;;;;;;;2.00;0.75;;;;;;;;;;5046551;28;20207;-63
2022/07/14 14:27:42;;;;;;;4.20;0.85;;;;;;;;;;5047115;28;20656;-63
2022/07/14 14:30:07;;;;;;;2.33;0.70;;;;;;;;;;5036719;28;20587;-64
2022/07/14 14:32:32;;;;;;;2.78;0.70;;;;;;;;;;5027638;28;20685;-63
2022/07/14 14:34:58;;;;;;;2.13;0.77;;;;;;;;;;5027763;28;20242;-63
2022/07/14 14:37:23;;;;;;;6.82;0.90;;;;;;;;;;5022839;28;20597;-63
2022/07/14 14:39:48;;;;;;;2.92;0.55;;;;;;;;;;5019638;28;20223;-63
2022/07/14 14:42:14;;;;;;;2.53;0.63;;;;;;;;;;5016843;28;20249;-62
2022/07/14 14:44:39;;;;;;;4.85;1.00;;;;;;;;;;5022497;28;20303;-62